createdAt,value
2023-01-09T00:00:20.194Z,99837.81
2023-01-09T00:03:09.681Z,99839.47
2023-01-09T00:05:39.088Z,99836.94
2023-01-09T00:08:09.752Z,99837.81
2023-01-09T00:10:39.153Z,99843.94
2023-01-09T00:13:08.315Z,99838.84
2023-01-09T00:15:37.675Z,99838.66
2023-01-09T00:18:06.823Z,99830.50
2023-01-09T00:20:36.633Z,99833.19
2023-01-09T00:23:05.673Z,99838.56
2023-01-09T00:25:36.850Z,99825.53
2023-01-09T00:28:06.304Z,99829.09
2023-01-09T00:30:35.595Z,99818.59
2023-01-09T00:33:04.779Z,99809.69
2023-01-09T00:35:34.677Z,99808.00
2023-01-09T00:38:04.664Z,99802.69
2023-01-09T00:40:35.533Z,99801.81
2023-01-09T00:43:04.610Z,99807.88
2023-01-09T00:45:34.220Z,99799.09
2023-01-09T00:48:08.845Z,99796.50
2023-01-09T00:50:38.875Z,99788.63
2023-01-09T00:53:11.819Z,99792.25
2023-01-09T00:55:42.707Z,99789.66
2023-01-09T00:58:12.107Z,99796.78
2023-01-09T01:00:41.960Z,99780.00
2023-01-09T01:03:11.219Z,99788.72
2023-01-09T01:05:57.696Z,99789.69
2023-01-09T01:08:26.815Z,99794.00
2023-01-09T01:10:57.477Z,99785.31
2023-01-09T01:13:26.607Z,99794.16
2023-01-09T01:15:55.849Z,99803.00
2023-01-09T01:18:25.495Z,99794.75
2023-01-09T01:20:54.754Z,99800.19
2023-01-09T01:23:23.820Z,99802.03
2023-01-09T01:25:53.462Z,99803.00
2023-01-09T01:28:23.990Z,99802.16
2023-01-09T01:30:53.517Z,99796.78
2023-01-09T01:33:22.525Z,99792.34
2023-01-09T01:35:52.063Z,99787.09
2023-01-09T01:38:21.025Z,99782.78
2023-01-09T01:40:54.756Z,99775.72
2023-01-09T01:43:25.337Z,99780.00
2023-01-09T01:45:54.787Z,99785.25
2023-01-09T01:48:28.575Z,99789.78
2023-01-09T01:51:03.719Z,99784.34
2023-01-09T01:53:37.261Z,99780.00
2023-01-09T01:56:11.754Z,99772.25
2023-01-09T01:58:45.898Z,99771.38
2023-01-09T02:01:15.768Z,99777.47
2023-01-09T02:03:46.327Z,99769.63
2023-01-09T02:06:16.589Z,99760.63
2023-01-09T02:08:46.453Z,99761.56
2023-01-09T02:11:18.464Z,99766.94
2023-01-09T02:13:49.833Z,99759.13
2023-01-09T02:16:30.563Z,99759.97
2023-01-09T02:19:08.772Z,99761.78
2023-01-09T02:21:47.370Z,99757.31
2023-01-09T02:24:41.850Z,99763.25
2023-01-09T02:27:26.472Z,99758.03
2023-01-09T02:30:25.261Z,99757.22
2023-01-09T02:33:04.237Z,99758.28
2023-01-09T02:35:46.369Z,99752.09
2023-01-09T02:38:23.619Z,99754.69
2023-01-09T02:41:00.490Z,99757.47
2023-01-09T02:43:30.476Z,99765.41
2023-01-09T02:45:59.720Z,99759.25
2023-01-09T02:48:31.121Z,99757.53
2023-01-09T02:51:12.016Z,99753.84
2023-01-09T02:54:10.393Z,99757.41
2023-01-09T02:57:12.889Z,99751.19
2023-01-09T02:59:57.104Z,99755.72
2023-01-09T03:02:45.498Z,99747.81
2023-01-09T03:05:24.378Z,99756.66
2023-01-09T03:08:02.304Z,99753.25
2023-01-09T03:10:37.454Z,99747.09
2023-01-09T03:13:10.679Z,99749.88
2023-01-09T03:15:43.572Z,99762.19
2023-01-09T03:18:15.260Z,99759.53
2023-01-09T03:20:47.632Z,99753.41
2023-01-09T03:23:16.888Z,99759.56
2023-01-09T03:25:46.142Z,99750.78
2023-01-09T03:28:27.981Z,99748.22
2023-01-09T03:31:22.540Z,99742.75
2023-01-09T03:33:51.890Z,99734.06
2023-01-09T03:36:23.766Z,99733.22
2023-01-09T03:38:53.185Z,99738.53
2023-01-09T03:41:22.478Z,99725.31
2023-01-09T03:43:51.572Z,99727.06
2023-01-09T03:46:20.889Z,99734.22
2023-01-09T03:48:49.968Z,99733.97
2023-01-09T03:51:19.363Z,99738.34
2023-01-09T03:53:49.855Z,99732.22
2023-01-09T03:56:19.152Z,99736.72
2023-01-09T03:58:50.141Z,99733.16
2023-01-09T04:01:19.696Z,99734.06
2023-01-09T04:03:48.741Z,99727.13
2023-01-09T04:06:18.056Z,99730.69
2023-01-09T04:08:48.532Z,99724.56
2023-01-09T04:11:18.268Z,99724.63
2023-01-09T04:13:47.254Z,99721.91
2023-01-09T04:16:16.716Z,99721.03
2023-01-09T04:18:45.742Z,99722.63
2023-01-09T04:21:15.124Z,99721.03
2023-01-09T04:23:45.455Z,99725.47
2023-01-09T04:26:16.291Z,99724.63
2023-01-09T04:28:45.255Z,99724.56
2023-01-09T04:31:14.748Z,99732.53
2023-01-09T04:33:43.832Z,99731.66
2023-01-09T04:36:13.083Z,99740.53
2023-01-09T04:38:42.270Z,99731.66
2023-01-09T04:41:31.503Z,99726.25
2023-01-09T04:44:02.049Z,99730.75
2023-01-09T04:46:31.571Z,99720.22
2023-01-09T04:49:00.556Z,99728.19
2023-01-09T04:51:29.888Z,99728.19
2023-01-09T04:53:58.887Z,99733.56
2023-01-09T04:56:28.276Z,99740.63
2023-01-09T04:58:57.244Z,99740.63
2023-01-09T05:01:28.140Z,99738.78
2023-01-09T05:03:57.576Z,99739.59
2023-01-09T05:06:27.079Z,99738.78
2023-01-09T05:08:56.639Z,99728.19
2023-01-09T05:11:26.550Z,99720.31
2023-01-09T05:13:55.829Z,99720.31
2023-01-09T05:16:25.272Z,99716.72
2023-01-09T05:18:57.216Z,99705.03
2023-01-09T05:21:27.153Z,99697.19
2023-01-09T05:23:56.177Z,99698.22
2023-01-09T05:26:26.125Z,99694.66
2023-01-09T05:28:56.397Z,99695.63
2023-01-09T05:31:26.885Z,99684.88
2023-01-09T05:33:59.330Z,99689.38
2023-01-09T05:36:29.757Z,99682.31
2023-01-09T05:38:58.915Z,99679.56
2023-01-09T05:41:28.294Z,99683.25
2023-01-09T05:43:57.600Z,99679.72
2023-01-09T05:46:26.881Z,99678.75
2023-01-09T05:48:57.309Z,99681.44
2023-01-09T05:51:26.714Z,99679.75
2023-01-09T05:53:55.695Z,99687.72
2023-01-09T05:56:25.408Z,99673.47
2023-01-09T05:58:54.446Z,99673.56
2023-01-09T06:01:24.129Z,99666.50
2023-01-09T06:03:53.280Z,99671.81
2023-01-09T06:06:24.387Z,99679.75
2023-01-09T06:08:53.501Z,99676.22
2023-01-09T06:11:22.803Z,99662.78
2023-01-09T06:13:52.099Z,99669.06
2023-01-09T06:16:21.381Z,99664.69
2023-01-09T06:18:50.498Z,99667.28
2023-01-09T06:21:19.719Z,99658.56
2023-01-09T06:23:50.103Z,99665.59
2023-01-09T06:26:19.673Z,99662.09
2023-01-09T06:28:48.654Z,99659.41
2023-01-09T06:31:18.198Z,99654.19
2023-01-09T06:33:47.364Z,99649.75
2023-01-09T06:36:16.617Z,99647.84
2023-01-09T06:38:45.798Z,99643.28
2023-01-09T06:41:16.615Z,99642.63
2023-01-09T06:43:46.195Z,99650.50
2023-01-09T06:46:15.481Z,99649.63
2023-01-09T06:48:44.505Z,99652.25
2023-01-09T06:51:13.940Z,99654.09
2023-01-09T06:53:42.921Z,99656.78
2023-01-09T06:56:12.292Z,99655.81
2023-01-09T06:58:42.773Z,99655.06
2023-01-09T07:01:12.285Z,99650.50
2023-01-09T07:03:41.291Z,99657.56
2023-01-09T07:06:10.880Z,99654.09
2023-01-09T07:08:39.887Z,99649.69
2023-01-09T07:11:09.269Z,99652.34
2023-01-09T07:13:38.869Z,99647.16
2023-01-09T07:16:10.543Z,99647.06
2023-01-09T07:18:39.701Z,99642.63
2023-01-09T07:21:09.331Z,99646.31
2023-01-09T07:23:38.411Z,99637.41
2023-01-09T07:26:07.668Z,99641.84
2023-01-09T07:28:36.891Z,99648.91
2023-01-09T07:31:07.644Z,99647.06
2023-01-09T07:33:38.324Z,99636.44
2023-01-09T07:36:08.799Z,99632.03
2023-01-09T07:38:37.781Z,99632.91
2023-01-09T07:41:07.245Z,99638.19
2023-01-09T07:43:37.197Z,99635.53
2023-01-09T07:46:07.225Z,99630.25
2023-01-09T07:48:37.666Z,99626.75
2023-01-09T07:51:07.311Z,99626.75
2023-01-09T07:53:36.276Z,99629.41
2023-01-09T07:56:05.939Z,99629.38
2023-01-09T07:58:34.915Z,99621.41
2023-01-09T08:01:04.267Z,99620.47
2023-01-09T08:03:33.920Z,99618.59
2023-01-09T08:06:04.343Z,99620.44
2023-01-09T08:08:33.839Z,99614.13
2023-01-09T08:11:02.877Z,99613.31
2023-01-09T08:13:32.293Z,99615.94
2023-01-09T08:16:01.370Z,99610.56
2023-01-09T08:18:30.883Z,99615.88
2023-01-09T08:20:59.958Z,99610.56
2023-01-09T08:23:30.770Z,99609.59
2023-01-09T08:25:59.856Z,99616.53
2023-01-09T08:28:29.116Z,99605.78
2023-01-09T08:30:58.150Z,99612.03
2023-01-09T08:33:27.933Z,99617.31
2023-01-09T08:35:57.023Z,99620.03
2023-01-09T08:38:26.537Z,99612.03
2023-01-09T08:40:56.928Z,99616.59
2023-01-09T08:43:44.783Z,99614.78
2023-01-09T08:46:53.050Z,99608.56
2023-01-09T08:49:22.709Z,99605.19
2023-01-09T08:51:51.691Z,99598.88
2023-01-09T08:54:21.157Z,99606.81
2023-01-09T08:56:51.713Z,99606.94
2023-01-09T08:59:21.011Z,99616.34
2023-01-09T09:01:50.256Z,99613.06
2023-01-09T09:04:19.695Z,99614.13
2023-01-09T09:06:48.693Z,99610.47
2023-01-09T09:09:17.987Z,99609.59
2023-01-09T09:11:47.267Z,99611.44
2023-01-09T09:14:35.284Z,99605.28
2023-01-09T09:17:04.530Z,99606.25
2023-01-09T09:19:33.947Z,99597.50
2023-01-09T09:22:03.148Z,99607.13
2023-01-09T09:24:32.436Z,99614.28
2023-01-09T09:27:01.616Z,99606.38
2023-01-09T09:29:32.270Z,99608.09
2023-01-09T09:32:01.885Z,99600.94
2023-01-09T09:34:30.996Z,99602.78
2023-01-09T09:37:00.241Z,99602.78
2023-01-09T09:39:29.551Z,99595.59
2023-01-09T09:42:39.129Z,99605.44
2023-01-09T09:45:17.888Z,99594.13
2023-01-09T09:47:57.843Z,99599.34
2023-01-09T09:50:58.135Z,99599.34
2023-01-09T09:53:32.147Z,99605.69
2023-01-09T09:56:03.023Z,99592.28
2023-01-09T09:58:38.011Z,99594.28
2023-01-09T10:01:11.315Z,99604.00
2023-01-09T10:03:45.370Z,99599.63
2023-01-09T10:06:21.730Z,99600.59
2023-01-09T10:09:01.428Z,99597.19
2023-01-09T10:11:38.450Z,99592.75
2023-01-09T10:14:22.855Z,99589.19
2023-01-09T10:17:19.033Z,99582.97
2023-01-09T10:20:07.014Z,99587.38
2023-01-09T10:22:47.781Z,99588.22
2023-01-09T10:25:26.684Z,99586.41
2023-01-09T10:28:13.114Z,99573.31
2023-01-09T10:30:47.164Z,99575.00
2023-01-09T10:33:36.701Z,99564.31
2023-01-09T10:36:34.018Z,99560.00
2023-01-09T10:39:08.578Z,99569.53
2023-01-09T10:41:42.984Z,99566.00
2023-01-09T10:44:21.183Z,99562.56
2023-01-09T10:46:55.197Z,99575.88
2023-01-09T10:49:27.544Z,99566.03
2023-01-09T10:52:15.679Z,99573.97
2023-01-09T10:54:52.680Z,99567.69
2023-01-09T10:57:41.764Z,99564.78
2023-01-09T11:00:23.591Z,99562.22
2023-01-09T11:02:54.003Z,99557.91
2023-01-09T11:05:28.059Z,99553.47
2023-01-09T11:08:02.331Z,99562.22
2023-01-09T11:10:48.162Z,99555.16
2023-01-09T11:13:21.795Z,99549.03
2023-01-09T11:16:17.995Z,99556.88
2023-01-09T11:18:53.311Z,99548.88
2023-01-09T11:21:33.228Z,99546.16
2023-01-09T11:24:31.550Z,99545.22
2023-01-09T11:27:25.939Z,99542.69
2023-01-09T11:30:27.890Z,99540.84
2023-01-09T11:32:59.126Z,99540.91
2023-01-09T11:35:34.417Z,99540.91
2023-01-09T11:38:15.402Z,99540.91
2023-01-09T11:40:51.254Z,99531.13
2023-01-09T11:43:30.708Z,99528.56
2023-01-09T11:46:02.731Z,99537.41
2023-01-09T11:48:38.139Z,99529.38
2023-01-09T11:51:19.667Z,99535.56
2023-01-09T11:54:17.417Z,99534.63
2023-01-09T11:56:48.140Z,99526.78
2023-01-09T11:59:20.477Z,99531.97
2023-01-09T12:02:18.524Z,99527.66
2023-01-09T12:04:55.535Z,99531.16
2023-01-09T12:07:48.004Z,99531.22
2023-01-09T12:10:45.018Z,99530.31
2023-01-09T12:13:27.682Z,99522.31
2023-01-09T12:16:07.466Z,99512.84
2023-01-09T12:18:49.850Z,99516.25
2023-01-09T12:21:33.693Z,99511.94
2023-01-09T12:24:18.578Z,99520.00
2023-01-09T12:27:01.839Z,99523.50
2023-01-09T12:29:54.133Z,99521.78
2023-01-09T12:32:35.253Z,99520.94
2023-01-09T12:35:18.697Z,99520.94
2023-01-09T12:38:05.437Z,99514.75
2023-01-09T12:40:47.000Z,99513.81
2023-01-09T12:43:29.423Z,99512.91
2023-01-09T12:46:11.292Z,99513.81
2023-01-09T12:49:00.744Z,99515.56
2023-01-09T12:51:36.437Z,99509.31
2023-01-09T12:54:12.364Z,99514.63
2023-01-09T12:56:46.431Z,99498.72
2023-01-09T12:59:31.094Z,99503.91
2023-01-09T13:02:13.953Z,99491.63
2023-01-09T13:04:50.237Z,99498.72
2023-01-09T13:07:23.960Z,99489.88
2023-01-09T13:09:59.665Z,99478.38
2023-01-09T13:12:32.967Z,99469.53
2023-01-09T13:15:08.500Z,99474.75
2023-01-09T13:17:45.787Z,99477.41
2023-01-09T13:20:23.637Z,99473.88
2023-01-09T13:22:54.025Z,99472.13
2023-01-09T13:25:41.144Z,99467.53
2023-01-09T13:28:18.540Z,99474.66
2023-01-09T13:31:14.082Z,99468.56
2023-01-09T13:33:47.601Z,99476.69
2023-01-09T13:36:26.670Z,99466.09
2023-01-09T13:38:57.700Z,99476.63
2023-01-09T13:41:45.889Z,99477.34
2023-01-09T13:44:25.789Z,99473.97
2023-01-09T13:46:58.186Z,99470.50
2023-01-09T13:50:22.085Z,99475.81
2023-01-09T13:52:51.671Z,99469.72
2023-01-09T13:55:36.068Z,99475.81
2023-01-09T13:58:25.643Z,99476.69
2023-01-09T14:01:01.033Z,99476.72
2023-01-09T14:03:35.710Z,99480.97
2023-01-09T14:06:28.084Z,99490.72
2023-01-09T14:09:20.459Z,99486.41
2023-01-09T14:12:03.125Z,99485.47
2023-01-09T14:14:35.584Z,99487.28
2023-01-09T14:17:16.123Z,99480.31
2023-01-09T14:19:47.196Z,99484.66
2023-01-09T14:22:27.576Z,99482.03
2023-01-09T14:25:02.528Z,99490.84
2023-01-09T14:28:08.418Z,99494.38
2023-01-09T14:30:40.895Z,99489.94
2023-01-09T14:33:28.326Z,99491.78
2023-01-09T14:36:15.402Z,99486.41
2023-01-09T14:38:47.859Z,99491.72
2023-01-09T14:41:46.893Z,99493.44
2023-01-09T14:44:27.719Z,99495.28
2023-01-09T14:47:00.502Z,99499.59
2023-01-09T14:49:36.257Z,99497.81
2023-01-09T14:52:16.752Z,99493.44
2023-01-09T14:54:47.898Z,99495.28
2023-01-09T14:57:28.364Z,99494.38
2023-01-09T15:00:01.966Z,99498.72
2023-01-09T15:02:35.204Z,99500.56
2023-01-09T15:05:09.543Z,99498.88
2023-01-09T15:07:46.455Z,99505.03
2023-01-09T15:10:20.921Z,99504.00
2023-01-09T15:12:53.305Z,99503.19
2023-01-09T15:15:25.111Z,99500.56
2023-01-09T15:17:59.237Z,99504.97
2023-01-09T15:20:31.035Z,99507.63
2023-01-09T15:23:04.344Z,99509.31
2023-01-09T15:25:40.037Z,99507.63
2023-01-09T15:28:28.969Z,99514.63
2023-01-09T15:31:06.073Z,99513.72
2023-01-09T15:33:36.474Z,99515.50
2023-01-09T15:36:14.084Z,99522.53
2023-01-09T15:38:46.870Z,99517.28
2023-01-09T15:41:39.728Z,99513.72
2023-01-09T15:44:16.624Z,99521.66
2023-01-09T15:46:46.608Z,99529.63
2023-01-09T15:49:18.457Z,99523.38
2023-01-09T15:51:49.914Z,99527.78
2023-01-09T15:54:28.932Z,99520.72
2023-01-09T15:57:30.892Z,99523.38
2023-01-09T16:00:34.564Z,99531.28
2023-01-09T16:03:11.659Z,99517.16
2023-01-09T16:05:42.601Z,99519.81
2023-01-09T16:08:24.427Z,99519.88
2023-01-09T16:10:58.272Z,99526.00
2023-01-09T16:13:29.277Z,99529.38
2023-01-09T16:16:02.594Z,99532.16
2023-01-09T16:18:34.557Z,99533.97
2023-01-09T16:21:23.242Z,99535.72
2023-01-09T16:23:57.542Z,99534.75
2023-01-09T16:26:31.166Z,99544.47
2023-01-09T16:29:29.103Z,99548.88
2023-01-09T16:32:02.964Z,99538.28
2023-01-09T16:34:32.567Z,99536.47
2023-01-09T16:37:03.580Z,99540.91
2023-01-09T16:39:32.801Z,99537.34
2023-01-09T16:42:20.650Z,99542.53
2023-01-09T16:44:49.726Z,99542.56
2023-01-09T16:47:19.001Z,99537.34
2023-01-09T16:49:48.111Z,99542.56
2023-01-09T16:52:18.368Z,99530.25
2023-01-09T16:54:47.872Z,99539.06
2023-01-09T16:57:19.805Z,99540.78
2023-01-09T16:59:49.594Z,99544.38
2023-01-09T17:02:20.487Z,99546.97
2023-01-09T17:04:50.093Z,99542.53
2023-01-09T17:07:20.240Z,99546.03
2023-01-09T17:09:50.719Z,99553.13
2023-01-09T17:12:24.261Z,99547.69
2023-01-09T17:14:53.667Z,99547.75
2023-01-09T17:17:22.951Z,99546.84
2023-01-09T17:19:52.083Z,99552.19
2023-01-09T17:22:21.603Z,99551.28
2023-01-09T17:25:19.296Z,99552.16
2023-01-09T17:28:08.947Z,99553.06
2023-01-09T17:30:38.041Z,99554.84
2023-01-09T17:33:07.559Z,99552.16
2023-01-09T17:35:36.673Z,99553.88
2023-01-09T17:38:05.999Z,99553.00
2023-01-09T17:40:35.226Z,99552.97
2023-01-09T17:43:07.547Z,99563.59
2023-01-09T17:45:41.243Z,99565.34
2023-01-09T17:48:17.342Z,99568.91
2023-01-09T17:50:47.587Z,99560.94
2023-01-09T17:53:18.321Z,99558.28
2023-01-09T17:55:47.603Z,99564.41
2023-01-09T17:58:30.704Z,99561.75
2023-01-09T18:01:00.289Z,99572.34
2023-01-09T18:03:33.615Z,99567.06
2023-01-09T18:06:03.626Z,99571.44
2023-01-09T18:08:33.757Z,99563.50
2023-01-09T18:11:04.705Z,99569.66
2023-01-09T18:13:36.304Z,99569.66
2023-01-09T18:16:05.805Z,99570.50
2023-01-09T18:18:35.120Z,99575.81
2023-01-09T18:21:06.668Z,99567.81
2023-01-09T18:23:36.388Z,99576.63
2023-01-09T18:26:08.008Z,99573.97
2023-01-09T18:28:40.050Z,99573.13
2023-01-09T18:31:09.288Z,99564.31
2023-01-09T18:33:38.617Z,99567.75
2023-01-09T18:36:09.366Z,99565.97
2023-01-09T18:38:39.070Z,99565.97
2023-01-09T18:41:08.416Z,99572.13
2023-01-09T18:43:39.048Z,99575.72
2023-01-09T18:46:08.826Z,99574.75
2023-01-09T18:48:38.154Z,99586.22
2023-01-09T18:51:08.405Z,99587.13
2023-01-09T18:53:37.834Z,99572.09
2023-01-09T18:56:07.291Z,99571.13
2023-01-09T18:58:38.383Z,99568.56
2023-01-09T19:01:07.613Z,99567.66
2023-01-09T19:03:36.974Z,99572.94
2023-01-09T19:06:07.784Z,99578.25
2023-01-09T19:08:37.664Z,99575.59
2023-01-09T19:11:07.312Z,99577.31
2023-01-09T19:13:39.341Z,99572.00
2023-01-09T19:16:10.001Z,99579.97
2023-01-09T19:18:41.343Z,99582.63
2023-01-09T19:21:15.219Z,99568.44
2023-01-09T19:23:46.036Z,99573.75
2023-01-09T19:26:20.393Z,99577.25
2023-01-09T19:28:55.054Z,99568.44
2023-01-09T19:31:28.723Z,99572.81
2023-01-09T19:33:59.174Z,99577.31
2023-01-09T19:36:29.175Z,99579.06
2023-01-09T19:38:59.029Z,99589.66
2023-01-09T19:41:29.685Z,99587.06
2023-01-09T19:44:00.969Z,99596.75
2023-01-09T19:46:30.749Z,99604.78
2023-01-09T19:49:04.914Z,99603.94
2023-01-09T19:51:35.090Z,99604.78
2023-01-09T19:56:35.574Z,99610.09
2023-01-09T19:59:07.681Z,99611.06
2023-01-09T20:01:39.504Z,99614.53
2023-01-09T20:04:13.755Z,99611.88
2023-01-09T20:06:45.389Z,99608.41
2023-01-09T20:09:16.027Z,99606.66
2023-01-09T20:11:45.757Z,99618.13
2023-01-09T20:14:17.291Z,99619.91
2023-01-09T20:16:48.545Z,99622.50
2023-01-09T20:19:21.762Z,99624.31
2023-01-09T20:21:51.092Z,99627.88
2023-01-09T20:24:20.568Z,99638.41
2023-01-09T20:26:50.530Z,99636.69
2023-01-09T20:29:22.376Z,99634.03
2023-01-09T20:31:51.824Z,99637.56
2023-01-09T20:34:21.142Z,99640.22
2023-01-09T20:36:50.302Z,99643.78
2023-01-09T20:39:20.020Z,99648.19
2023-01-09T20:41:49.439Z,99656.22
2023-01-09T20:44:18.871Z,99655.34
2023-01-09T20:46:49.715Z,99663.31
2023-01-09T20:49:19.978Z,99686.31
2023-01-09T20:51:51.880Z,99683.66
2023-01-09T20:54:23.021Z,99684.56
2023-01-09T20:56:54.101Z,99688.97
2023-01-09T20:59:23.655Z,99693.41
2023-01-09T21:01:54.293Z,99696.94
2023-01-09T21:04:23.829Z,99700.47
2023-01-09T21:06:53.194Z,99698.72
2023-01-09T21:09:22.842Z,99696.06
2023-01-09T21:11:51.811Z,99703.19
2023-01-09T21:14:21.442Z,99703.19
2023-01-09T21:16:54.709Z,99704.09
2023-01-09T21:19:26.305Z,99715.59
2023-01-09T21:21:55.691Z,99719.97
2023-01-09T21:24:24.959Z,99726.13
2023-01-09T21:26:53.953Z,99735.00
2023-01-09T21:29:23.569Z,99741.13
2023-01-09T21:31:52.673Z,99741.13
2023-01-09T21:34:22.420Z,99743.84
2023-01-09T21:36:53.725Z,99749.06
2023-01-09T21:39:23.242Z,99754.44
2023-01-09T21:42:09.798Z,99758.81
2023-01-09T21:44:56.918Z,99768.53
2023-01-09T21:47:26.287Z,99775.59
2023-01-09T21:49:55.546Z,99775.59
2023-01-09T21:52:26.581Z,99776.47
2023-01-09T21:54:57.780Z,99781.78
2023-01-09T21:57:26.908Z,99785.25
2023-01-09T21:59:56.554Z,99782.59
2023-01-09T22:02:25.711Z,99781.78
2023-01-09T22:05:00.052Z,99799.31
2023-01-09T22:07:31.905Z,99799.38
2023-01-09T22:10:01.410Z,99813.47
2023-01-09T22:12:30.449Z,99817.88
2023-01-09T22:14:59.835Z,99816.97
2023-01-09T22:17:30.008Z,99823.16
2023-01-09T22:19:59.469Z,99816.94
2023-01-09T22:22:30.014Z,99825.75
2023-01-09T22:24:59.744Z,99830.16
2023-01-09T22:27:28.828Z,99827.38
2023-01-09T22:29:58.300Z,99824.72
2023-01-09T22:32:27.401Z,99819.19
2023-01-09T22:34:56.769Z,99824.63
2023-01-09T22:37:25.929Z,99828.94
2023-01-09T22:39:56.601Z,99833.41
2023-01-09T22:42:25.720Z,99845.63
2023-01-09T22:44:54.986Z,99844.69
2023-01-09T22:47:24.098Z,99850.13
2023-01-09T22:49:53.883Z,99840.41
2023-01-09T22:52:23.955Z,99835.13
2023-01-09T22:54:53.439Z,99829.94
2023-01-09T22:57:23.804Z,99840.47
2023-01-09T22:59:53.229Z,99847.56
2023-01-09T23:02:22.349Z,99851.09
2023-01-09T23:04:54.298Z,99856.06
2023-01-09T23:07:23.332Z,99861.34
2023-01-09T23:09:52.850Z,99871.00
2023-01-09T23:12:23.428Z,99877.28
2023-01-09T23:14:52.906Z,99892.22
2023-01-09T23:17:21.937Z,99879.09
2023-01-09T23:19:51.455Z,99884.34
2023-01-09T23:22:20.574Z,99881.69
2023-01-09T23:24:49.988Z,99886.97
2023-01-09T23:27:19.092Z,99889.63
2023-01-09T23:29:49.789Z,99900.31
2023-01-09T23:32:19.166Z,99897.72
2023-01-09T23:34:49.627Z,99891.53
2023-01-09T23:37:18.788Z,99887.81
2023-01-09T23:39:48.098Z,99891.59
2023-01-09T23:42:34.574Z,99904.78
2023-01-09T23:45:05.999Z,99900.44
2023-01-09T23:47:35.231Z,99905.81
2023-01-09T23:50:07.030Z,99918.47
2023-01-09T23:52:36.303Z,99924.75
2023-01-09T23:55:06.251Z,99924.69
2023-01-09T23:57:35.402Z,99944.00
